createdAt,value
2019-03-21T00:01:06.019Z,9.57
2019-03-21T00:03:35.357Z,9.80
2019-03-21T00:06:06.007Z,10.87
2019-03-21T00:08:35.227Z,10.03
2019-03-21T00:11:39.602Z,11.53
2019-03-21T00:14:18.558Z,10.63
2019-03-21T00:16:47.852Z,9.73
2019-03-21T00:19:17.339Z,9.87
2019-03-21T00:21:47.321Z,10.37
2019-03-21T00:24:16.738Z,9.80
2019-03-21T00:26:46.266Z,10.55
2019-03-21T00:29:15.718Z,10.35
2019-03-21T00:31:45.562Z,10.23
2019-03-21T00:34:14.782Z,10.65
2019-03-21T00:36:44.295Z,11.03
2019-03-21T00:39:13.874Z,10.03
2019-03-21T00:41:43.582Z,11.27
2019-03-21T00:44:18.085Z,10.97
2019-03-21T00:46:44.649Z,10.28
2019-03-21T00:49:13.909Z,10.15
2019-03-21T00:51:43.362Z,10.78
2019-03-21T00:54:12.842Z,10.13
2019-03-21T00:56:42.108Z,11.30
2019-03-21T00:59:11.326Z,10.23
2019-03-21T01:01:40.727Z,10.27
2019-03-21T01:04:10.047Z,11.47
2019-03-21T01:06:39.310Z,10.63
2019-03-21T01:09:10.516Z,11.33
2019-03-21T01:11:39.746Z,10.90
2019-03-21T01:14:09.300Z,11.80
2019-03-21T01:16:39.350Z,11.75
2019-03-21T01:19:08.679Z,10.28
2019-03-21T01:21:38.148Z,12.37
2019-03-21T01:24:07.606Z,11.70
2019-03-21T01:26:37.308Z,12.13
2019-03-21T01:29:06.507Z,11.97
2019-03-21T01:31:35.810Z,11.97
2019-03-21T01:34:05.311Z,13.00
2019-03-21T01:36:34.735Z,11.67
2019-03-21T01:39:05.714Z,11.70
2019-03-21T01:41:35.194Z,13.60
2019-03-21T01:44:04.559Z,11.60
2019-03-21T01:46:33.783Z,13.53
2019-03-21T01:49:03.318Z,13.10
2019-03-21T01:51:32.619Z,11.90
2019-03-21T01:54:01.901Z,13.00
2019-03-21T01:56:31.751Z,12.50
2019-03-21T01:59:01.019Z,12.63
2019-03-21T02:01:31.036Z,13.67
2019-03-21T02:04:00.314Z,12.47
2019-03-21T02:06:29.545Z,13.40
2019-03-21T02:08:59.137Z,13.27
2019-03-21T02:11:28.340Z,13.23
2019-03-21T02:13:57.573Z,14.00
2019-03-21T02:16:26.914Z,14.13
2019-03-21T02:18:56.466Z,15.03
2019-03-21T02:21:25.926Z,15.60
2019-03-21T02:23:55.187Z,15.05
2019-03-21T02:26:24.445Z,14.17
2019-03-21T02:28:53.827Z,14.43
2019-03-21T02:31:23.131Z,13.73
2019-03-21T02:33:52.361Z,13.70
2019-03-21T02:36:21.903Z,14.30
2019-03-21T02:38:51.219Z,14.17
2019-03-21T02:41:20.433Z,14.90
2019-03-21T02:43:50.311Z,14.67
2019-03-21T02:46:19.689Z,14.20
2019-03-21T02:48:49.379Z,14.27
2019-03-21T02:51:18.608Z,14.47
2019-03-21T02:53:48.159Z,13.70
2019-03-21T02:56:18.128Z,14.17
2019-03-21T02:58:47.501Z,14.13
2019-03-21T03:01:16.881Z,14.07
2019-03-21T03:03:46.200Z,13.87
2019-03-21T03:06:15.455Z,15.13
2019-03-21T03:08:44.785Z,13.62
2019-03-21T03:11:14.553Z,13.15
2019-03-21T03:13:44.992Z,13.83
2019-03-21T03:16:14.578Z,13.97
2019-03-21T03:18:43.791Z,12.85
2019-03-21T03:21:13.004Z,13.72
2019-03-21T03:23:42.238Z,14.13
2019-03-21T03:26:11.518Z,13.48
2019-03-21T03:28:40.936Z,13.13
2019-03-21T03:31:10.586Z,14.18
2019-03-21T03:33:40.017Z,13.20
2019-03-21T03:36:09.491Z,13.43
2019-03-21T03:38:38.707Z,13.25
2019-03-21T03:41:08.870Z,14.57
2019-03-21T03:43:38.396Z,13.27
2019-03-21T03:46:08.325Z,14.20
2019-03-21T03:48:37.673Z,13.77
2019-03-21T03:51:06.950Z,13.62
2019-03-21T03:53:36.762Z,13.72
2019-03-21T03:56:06.156Z,14.63
2019-03-21T03:58:36.374Z,13.70
2019-03-21T04:01:05.845Z,12.75
2019-03-21T04:03:35.164Z,14.18
2019-03-21T04:06:04.661Z,13.13
2019-03-21T04:08:34.115Z,11.80
2019-03-21T04:11:03.545Z,12.83
2019-03-21T04:13:34.080Z,12.68
2019-03-21T04:16:03.431Z,13.57
2019-03-21T04:18:33.476Z,13.15
2019-03-21T04:21:03.016Z,13.80
2019-03-21T04:23:33.319Z,13.40
2019-03-21T04:26:06.290Z,14.20
2019-03-21T04:28:35.599Z,12.93
2019-03-21T04:31:05.078Z,12.60
2019-03-21T04:33:35.056Z,13.20
2019-03-21T04:36:04.292Z,14.97
2019-03-21T04:38:33.904Z,12.97
2019-03-21T04:41:03.451Z,12.60
2019-03-21T04:43:32.714Z,12.95
2019-03-21T04:46:07.673Z,12.37
2019-03-21T04:48:33.649Z,12.03
2019-03-21T04:51:03.009Z,12.67
2019-03-21T04:53:32.612Z,13.33
2019-03-21T04:56:02.228Z,13.07
2019-03-21T04:58:31.433Z,13.25
2019-03-21T05:01:01.442Z,13.13
2019-03-21T05:03:30.766Z,12.63
2019-03-21T05:06:00.517Z,13.27
2019-03-21T05:08:29.767Z,13.70
2019-03-21T05:10:59.290Z,14.20
2019-03-21T05:13:28.602Z,12.40
2019-03-21T05:15:58.334Z,12.30
2019-03-21T05:18:31.040Z,13.27
2019-03-21T05:21:00.523Z,13.03
2019-03-21T05:23:29.853Z,12.45
2019-03-21T05:25:59.154Z,13.58
2019-03-21T05:28:28.365Z,12.80
2019-03-21T05:31:03.642Z,12.57
2019-03-21T05:33:35.599Z,13.83
2019-03-21T05:36:05.419Z,13.23
2019-03-21T05:38:34.991Z,12.97
2019-03-21T05:41:04.403Z,13.90
2019-03-21T05:43:37.479Z,12.78
2019-03-21T05:46:06.776Z,13.83
2019-03-21T05:48:36.582Z,13.30
2019-03-21T05:51:05.813Z,13.40
2019-03-21T05:53:35.369Z,14.87
2019-03-21T05:56:04.617Z,13.60
2019-03-21T05:58:33.858Z,13.40
2019-03-21T06:01:03.234Z,13.07
2019-03-21T06:03:35.234Z,13.17
2019-03-21T06:06:09.514Z,13.50
2019-03-21T06:08:39.460Z,13.57
2019-03-21T06:11:09.098Z,15.43
2019-03-21T06:13:38.630Z,13.15
2019-03-21T06:16:07.303Z,14.20
2019-03-21T06:19:12.658Z,13.43
2019-03-21T06:21:47.037Z,13.53
2019-03-21T06:24:40.201Z,14.77
2019-03-21T06:27:40.553Z,14.30
2019-03-21T06:30:11.219Z,13.03
2019-03-21T06:32:40.592Z,13.68
2019-03-21T06:35:20.848Z,14.05
2019-03-21T06:37:53.697Z,14.13
2019-03-21T06:40:22.994Z,13.13
2019-03-21T06:42:52.314Z,13.32
2019-03-21T06:45:21.785Z,14.07
2019-03-21T06:47:53.134Z,14.20
2019-03-21T06:50:22.660Z,12.95
2019-03-21T06:52:51.870Z,13.97
2019-03-21T06:55:21.119Z,13.23
2019-03-21T06:57:50.802Z,14.20
2019-03-21T07:00:20.066Z,11.97
2019-03-21T07:02:49.445Z,15.95
2019-03-21T07:05:21.671Z,12.40
2019-03-21T07:07:50.896Z,13.63
2019-03-21T07:10:20.328Z,12.93
2019-03-21T07:12:49.563Z,13.45
2019-03-21T07:15:18.830Z,13.40
2019-03-21T07:17:48.091Z,13.00
2019-03-21T07:20:17.743Z,13.28
2019-03-21T07:22:47.263Z,13.40
2019-03-21T07:25:17.472Z,13.13
2019-03-21T07:27:47.882Z,12.90
2019-03-21T07:30:17.211Z,13.98
2019-03-21T07:32:46.430Z,13.80
2019-03-21T07:35:16.027Z,12.53
2019-03-21T07:37:45.518Z,13.25
2019-03-21T07:40:14.926Z,14.05
2019-03-21T07:42:44.596Z,12.63
2019-03-21T07:45:14.353Z,13.43
2019-03-21T07:47:44.000Z,14.80
2019-03-21T07:50:13.794Z,14.00
2019-03-21T07:52:43.385Z,14.90
2019-03-21T07:55:12.826Z,15.23
2019-03-21T07:57:42.170Z,14.95
2019-03-21T08:00:13.346Z,16.60
2019-03-21T08:02:42.685Z,16.52
2019-03-21T08:05:12.745Z,17.15
2019-03-21T08:07:42.331Z,16.90
2019-03-21T08:10:12.211Z,16.80
2019-03-21T08:12:42.052Z,17.05
2019-03-21T08:15:11.479Z,15.95
2019-03-21T08:17:40.800Z,16.93
2019-03-21T08:20:11.254Z,16.97
2019-03-21T08:22:40.563Z,16.70
2019-03-21T08:25:10.472Z,14.95
2019-03-21T08:27:40.414Z,13.15
2019-03-21T08:30:15.727Z,14.93
2019-03-21T08:32:45.207Z,13.35
2019-03-21T08:35:14.866Z,14.28
2019-03-21T08:37:44.199Z,15.03
2019-03-21T08:40:14.360Z,14.70
2019-03-21T08:42:43.825Z,14.70
2019-03-21T08:45:13.121Z,13.53
2019-03-21T08:47:43.445Z,14.10
2019-03-21T08:50:12.962Z,14.40
2019-03-21T08:52:42.438Z,13.25
2019-03-21T08:55:12.616Z,14.58
2019-03-21T08:57:42.159Z,14.33
2019-03-21T09:00:12.052Z,14.75
2019-03-21T09:02:41.322Z,13.83
2019-03-21T09:05:10.801Z,14.38
2019-03-21T09:07:40.243Z,12.18
2019-03-21T09:10:09.682Z,12.58
2019-03-21T09:12:39.195Z,15.25
2019-03-21T09:15:08.706Z,12.53
2019-03-21T09:17:38.102Z,14.10
2019-03-21T09:20:08.426Z,11.85
2019-03-21T09:22:37.645Z,10.80
2019-03-21T09:25:07.081Z,11.25
2019-03-21T09:27:36.301Z,11.80
2019-03-21T09:30:06.800Z,10.08
2019-03-21T09:32:36.497Z,12.00
2019-03-21T09:35:06.630Z,12.07
2019-03-21T09:37:35.874Z,11.80
2019-03-21T09:40:06.590Z,11.22
2019-03-21T09:42:36.129Z,12.13
2019-03-21T09:45:07.799Z,11.78
2019-03-21T09:47:37.420Z,11.10
2019-03-21T09:50:08.142Z,11.93
2019-03-21T09:52:37.702Z,11.12
2019-03-21T09:55:07.353Z,11.33
2019-03-21T09:57:36.816Z,11.73
2019-03-21T10:00:06.694Z,11.45
2019-03-21T10:02:35.952Z,11.53
2019-03-21T10:05:05.978Z,11.30
2019-03-21T10:07:35.271Z,11.65
2019-03-21T10:10:05.179Z,10.97
2019-03-21T10:12:34.385Z,11.33
2019-03-21T10:15:04.333Z,11.30
2019-03-21T10:17:33.707Z,12.37
2019-03-21T10:20:02.978Z,11.83
2019-03-21T10:22:32.263Z,10.63
2019-03-21T10:25:01.939Z,11.25
2019-03-21T10:27:31.509Z,12.25
2019-03-21T10:30:01.027Z,10.45
2019-03-21T10:32:30.594Z,14.43
2019-03-21T10:35:00.328Z,11.73
2019-03-21T10:37:29.849Z,11.73
2019-03-21T10:39:59.458Z,11.30
2019-03-21T10:42:28.737Z,10.55
2019-03-21T10:44:57.995Z,10.13
2019-03-21T10:47:27.379Z,10.60
2019-03-21T10:49:56.712Z,10.23
2019-03-21T10:52:26.079Z,10.50
2019-03-21T10:54:56.381Z,9.93
2019-03-21T10:57:26.136Z,9.35
2019-03-21T10:59:55.939Z,8.83
2019-03-21T11:02:25.494Z,9.45
2019-03-21T11:04:54.887Z,10.13
2019-03-21T11:07:22.561Z,9.48
2019-03-21T11:09:51.845Z,9.50
2019-03-21T11:12:21.185Z,9.48
2019-03-21T11:14:50.451Z,9.88
2019-03-21T11:17:19.772Z,10.55
2019-03-21T11:19:49.534Z,10.05
2019-03-21T11:22:18.812Z,9.38
2019-03-21T11:24:48.561Z,10.47
2019-03-21T11:27:17.783Z,10.65
2019-03-21T11:29:47.011Z,9.20
2019-03-21T11:32:16.427Z,10.82
2019-03-21T11:34:45.890Z,9.60
2019-03-21T11:37:15.086Z,8.80
2019-03-21T11:39:44.373Z,10.68
2019-03-21T11:42:13.602Z,9.33
2019-03-21T11:44:42.815Z,10.30
2019-03-21T11:47:12.417Z,10.30
2019-03-21T11:49:41.850Z,9.58
2019-03-21T11:52:18.097Z,11.03
2019-03-21T11:54:42.815Z,9.73
2019-03-21T11:57:12.319Z,9.65
2019-03-21T11:59:51.072Z,9.10
2019-03-21T12:02:12.835Z,10.00
2019-03-21T12:04:42.358Z,9.95
2019-03-21T12:07:11.637Z,11.20
2019-03-21T12:09:40.890Z,9.75
2019-03-21T12:12:10.331Z,10.63
2019-03-21T12:14:40.071Z,10.60
2019-03-21T12:17:09.448Z,10.05
2019-03-21T12:19:38.795Z,10.77
2019-03-21T12:22:08.280Z,10.98
2019-03-21T12:24:39.958Z,10.38
2019-03-21T12:27:09.489Z,10.98
2019-03-21T12:29:38.930Z,11.48
2019-03-21T12:32:08.731Z,11.30
2019-03-21T12:34:37.937Z,11.63
2019-03-21T12:37:07.150Z,12.70
2019-03-21T12:39:36.883Z,12.47
2019-03-21T12:42:06.166Z,12.55
2019-03-21T12:44:35.410Z,14.80
2019-03-21T12:47:04.969Z,11.65
2019-03-21T12:49:34.191Z,12.90
2019-03-21T12:52:03.631Z,13.25
2019-03-21T12:54:36.025Z,12.00
2019-03-21T12:57:05.281Z,12.00
2019-03-21T12:59:34.816Z,13.20
2019-03-21T13:02:04.054Z,13.45
2019-03-21T13:04:34.604Z,13.48
2019-03-21T13:07:03.854Z,13.13
2019-03-21T13:09:33.194Z,12.98
2019-03-21T13:12:02.487Z,14.30
2019-03-21T13:14:31.739Z,14.63
2019-03-21T13:17:01.005Z,14.05
2019-03-21T13:19:30.724Z,15.28
2019-03-21T13:21:59.923Z,13.25
2019-03-21T13:24:29.450Z,14.83
2019-03-21T13:27:00.242Z,14.28
2019-03-21T13:29:30.101Z,14.93
2019-03-21T13:31:59.516Z,14.03
2019-03-21T13:34:29.023Z,14.93
2019-03-21T13:36:58.367Z,15.98
2019-03-21T13:39:28.023Z,13.35
2019-03-21T13:41:57.254Z,16.42
2019-03-21T13:44:26.474Z,14.58
2019-03-21T13:46:55.710Z,15.23
2019-03-21T13:49:25.184Z,14.63
2019-03-21T13:51:54.415Z,14.47
2019-03-21T13:54:23.942Z,15.50
2019-03-21T13:56:53.303Z,14.98
2019-03-21T13:59:22.878Z,15.18
2019-03-21T14:01:52.183Z,14.30
2019-03-21T14:04:21.443Z,13.88
2019-03-21T14:06:51.175Z,13.72
2019-03-21T14:09:20.506Z,13.83
2019-03-21T14:11:49.823Z,14.53
2019-03-21T14:14:19.287Z,14.35
2019-03-21T14:16:50.971Z,14.87
2019-03-21T14:19:20.245Z,14.78
2019-03-21T14:21:49.541Z,15.68
2019-03-21T14:24:19.468Z,14.28
2019-03-21T14:26:49.409Z,13.56
2019-03-21T14:29:18.915Z,15.80
2019-03-21T14:31:48.451Z,14.07
2019-03-21T14:34:17.695Z,14.25
2019-03-21T14:36:46.928Z,14.75
2019-03-21T14:39:16.201Z,15.20
2019-03-21T14:41:45.478Z,15.93
2019-03-21T14:44:14.762Z,14.07
2019-03-21T14:46:44.191Z,15.57
2019-03-21T14:49:13.678Z,13.45
2019-03-21T14:51:42.946Z,16.67
2019-03-21T14:54:12.261Z,16.37
2019-03-21T14:56:43.095Z,14.63
2019-03-21T14:59:12.906Z,15.20
2019-03-21T15:01:42.534Z,14.20
2019-03-21T15:04:12.074Z,13.98
2019-03-21T15:06:41.282Z,14.45
2019-03-21T15:09:10.651Z,14.87
2019-03-21T15:11:40.200Z,15.85
2019-03-21T15:14:10.172Z,14.55
2019-03-21T15:16:39.643Z,13.43
2019-03-21T15:19:09.118Z,15.80
2019-03-21T15:21:38.544Z,13.93
2019-03-21T15:24:07.923Z,15.15
2019-03-21T15:26:37.122Z,13.72
2019-03-21T15:29:06.326Z,15.30
2019-03-21T15:31:36.233Z,14.55
2019-03-21T15:34:05.723Z,13.78
2019-03-21T15:36:37.594Z,13.28
2019-03-21T15:39:08.762Z,12.82
2019-03-21T15:41:38.674Z,13.47
2019-03-21T15:44:08.246Z,13.75
2019-03-21T15:46:37.531Z,14.75
2019-03-21T15:49:06.763Z,12.10
2019-03-21T15:51:35.990Z,13.80
2019-03-21T15:54:05.339Z,13.03
2019-03-21T15:56:34.565Z,12.93
2019-03-21T15:59:04.291Z,13.43
2019-03-21T16:01:34.031Z,13.65
2019-03-21T16:04:03.396Z,13.13
2019-03-21T16:06:32.737Z,13.35
2019-03-21T16:09:02.362Z,12.73
2019-03-21T16:11:31.621Z,12.90
2019-03-21T16:14:00.910Z,13.32
2019-03-21T16:16:30.449Z,13.25
2019-03-21T16:18:59.658Z,14.23
2019-03-21T16:21:29.115Z,13.08
2019-03-21T16:24:05.099Z,12.33
2019-03-21T16:26:29.429Z,13.78
2019-03-21T16:28:58.632Z,13.60
2019-03-21T16:31:27.938Z,13.93
2019-03-21T16:33:57.170Z,11.85
2019-03-21T16:36:26.733Z,13.73
2019-03-21T16:38:56.005Z,11.57
2019-03-21T16:41:25.236Z,13.58
2019-03-21T16:43:54.461Z,14.43
2019-03-21T16:46:23.706Z,13.25
2019-03-21T16:48:52.977Z,14.30
2019-03-21T16:51:22.391Z,14.23
2019-03-21T16:53:52.581Z,14.45
2019-03-21T16:56:26.391Z,13.63
2019-03-21T16:58:55.774Z,14.80
2019-03-21T17:01:26.302Z,14.18
2019-03-21T17:03:55.552Z,15.20
2019-03-21T17:06:25.068Z,14.10
2019-03-21T17:08:54.995Z,12.85
2019-03-21T17:11:24.385Z,14.35
2019-03-21T17:13:53.632Z,14.83
2019-03-21T17:16:23.322Z,13.90
2019-03-21T17:18:52.532Z,14.87
2019-03-21T17:21:21.819Z,14.18
2019-03-21T17:23:51.366Z,14.73
2019-03-21T17:26:20.623Z,13.03
2019-03-21T17:28:49.868Z,14.47
2019-03-21T17:31:19.311Z,13.78
2019-03-21T17:33:48.506Z,13.80
2019-03-21T17:36:20.576Z,15.03
2019-03-21T17:38:48.981Z,14.23
2019-03-21T17:41:18.430Z,14.78
2019-03-21T17:43:47.733Z,14.10
2019-03-21T17:46:17.366Z,14.27
2019-03-21T17:48:47.062Z,15.82
2019-03-21T17:51:16.295Z,14.97
2019-03-21T17:53:45.846Z,14.47
2019-03-21T17:56:15.118Z,15.40
2019-03-21T17:58:44.591Z,15.48
2019-03-21T18:01:14.402Z,16.00
2019-03-21T18:03:43.795Z,17.10
2019-03-21T18:06:13.028Z,14.85
2019-03-21T18:08:42.776Z,15.63
2019-03-21T18:11:12.101Z,16.12
2019-03-21T18:13:41.331Z,16.87
2019-03-21T18:16:10.856Z,15.40
2019-03-21T18:18:40.092Z,15.87
2019-03-21T18:21:09.325Z,16.10
2019-03-21T18:23:38.701Z,15.80
2019-03-21T18:26:08.192Z,15.97
2019-03-21T18:28:37.826Z,14.78
2019-03-21T18:31:07.264Z,16.20
2019-03-21T18:33:36.614Z,16.13
2019-03-21T18:36:06.175Z,16.23
2019-03-21T18:38:35.638Z,16.07
2019-03-21T18:41:05.238Z,15.90
2019-03-21T18:43:34.466Z,15.93
2019-03-21T18:46:03.791Z,14.77
2019-03-21T18:48:34.349Z,15.00
2019-03-21T18:51:03.602Z,15.33
2019-03-21T18:53:33.253Z,16.60
2019-03-21T18:56:02.481Z,16.97
2019-03-21T18:58:31.725Z,15.00
2019-03-21T19:01:01.118Z,15.27
2019-03-21T19:03:30.575Z,17.10
2019-03-21T19:06:01.039Z,16.00
2019-03-21T19:08:30.352Z,15.80
2019-03-21T19:10:59.574Z,16.43
2019-03-21T19:13:28.817Z,16.83
2019-03-21T19:15:58.143Z,15.93
2019-03-21T19:18:27.401Z,17.33
2019-03-21T19:20:56.630Z,16.40
2019-03-21T19:23:26.182Z,16.87
2019-03-21T19:25:55.531Z,16.50
2019-03-21T19:28:24.824Z,17.37
2019-03-21T19:30:54.094Z,16.10
2019-03-21T19:33:23.335Z,17.73
2019-03-21T19:35:52.710Z,18.13
2019-03-21T19:38:23.854Z,17.17
2019-03-21T19:40:53.524Z,17.57
2019-03-21T19:43:22.810Z,17.70
2019-03-21T19:45:52.772Z,16.93
2019-03-21T19:48:22.367Z,18.50
2019-03-21T19:50:51.722Z,18.33
2019-03-21T19:53:21.114Z,17.20
2019-03-21T19:55:50.598Z,19.43
2019-03-21T19:58:20.064Z,18.20
2019-03-21T20:00:49.307Z,18.30
2019-03-21T20:03:18.730Z,18.67
2019-03-21T20:05:59.710Z,17.97
2019-03-21T20:08:19.510Z,19.03
2019-03-21T20:10:48.791Z,17.97
2019-03-21T20:13:18.208Z,18.63
2019-03-21T20:15:48.713Z,17.93
2019-03-21T20:18:18.255Z,18.60
2019-03-21T20:20:47.779Z,17.77
2019-03-21T20:23:17.419Z,18.30
2019-03-21T20:25:46.736Z,16.33
2019-03-21T20:28:15.945Z,16.83
2019-03-21T20:30:45.290Z,19.77
2019-03-21T20:33:14.558Z,18.13
2019-03-21T20:35:44.166Z,17.47
2019-03-21T20:38:13.807Z,18.03
2019-03-21T20:40:43.070Z,19.13
2019-03-21T20:43:12.279Z,18.33
2019-03-21T20:45:41.859Z,16.90
2019-03-21T20:48:11.405Z,17.73
2019-03-21T20:50:42.758Z,17.70
2019-03-21T20:53:12.274Z,18.55
2019-03-21T20:55:41.725Z,17.50
2019-03-21T20:58:11.335Z,17.87
2019-03-21T21:00:41.414Z,16.03
2019-03-21T21:03:10.907Z,16.77
2019-03-21T21:05:40.714Z,17.80
2019-03-21T21:08:17.952Z,17.80
2019-03-21T21:10:48.253Z,18.43
2019-03-21T21:13:17.712Z,16.87
2019-03-21T21:15:47.482Z,18.03
2019-03-21T21:18:16.689Z,17.90
2019-03-21T21:20:45.930Z,18.30
2019-03-21T21:23:15.232Z,16.87
2019-03-21T21:25:44.494Z,19.23
2019-03-21T21:28:13.714Z,16.77
2019-03-21T21:30:42.950Z,17.97
2019-03-21T21:33:12.150Z,18.47
2019-03-21T21:35:42.542Z,19.20
2019-03-21T21:38:15.670Z,18.13
2019-03-21T21:40:44.910Z,18.60
2019-03-21T21:43:15.845Z,18.60
2019-03-21T21:45:45.128Z,17.33
2019-03-21T21:48:14.329Z,16.63
2019-03-21T21:50:43.570Z,17.40
2019-03-21T21:53:13.010Z,17.67
2019-03-21T21:55:42.720Z,17.90
2019-03-21T21:58:11.996Z,17.90
2019-03-21T22:00:41.318Z,18.80
2019-03-21T22:03:10.552Z,19.07
2019-03-21T22:05:39.852Z,17.80
2019-03-21T22:08:09.158Z,17.83
2019-03-21T22:10:38.382Z,18.87
2019-03-21T22:13:07.855Z,18.13
2019-03-21T22:15:37.412Z,18.57
2019-03-21T22:18:06.654Z,18.83
2019-03-21T22:20:35.876Z,18.33
2019-03-21T22:23:05.239Z,18.73
2019-03-21T22:25:34.526Z,17.93
2019-03-21T22:28:03.906Z,17.87
2019-03-21T22:30:33.266Z,18.00
2019-03-21T22:33:02.771Z,17.60
2019-03-21T22:35:32.029Z,16.70
2019-03-21T22:38:01.363Z,19.57
2019-03-21T22:40:30.592Z,19.43
2019-03-21T22:42:59.825Z,18.97
2019-03-21T22:45:29.145Z,19.57
2019-03-21T22:48:01.390Z,17.40
2019-03-21T22:50:30.406Z,17.23
2019-03-21T22:52:59.651Z,18.63
2019-03-21T22:55:28.874Z,18.07
2019-03-21T22:57:58.515Z,19.00
2019-03-21T23:00:34.675Z,18.45
2019-03-21T23:03:04.591Z,19.87
2019-03-21T23:05:34.453Z,18.73
2019-03-21T23:08:03.944Z,20.90
2019-03-21T23:10:33.842Z,17.13
2019-03-21T23:13:03.366Z,18.57
2019-03-21T23:15:33.675Z,19.03
2019-03-21T23:18:03.231Z,16.40
2019-03-21T23:20:32.459Z,19.90
2019-03-21T23:23:02.059Z,19.63
2019-03-21T23:25:31.377Z,18.27
2019-03-21T23:28:00.871Z,19.67
2019-03-21T23:30:33.269Z,17.70
2019-03-21T23:33:01.556Z,17.20
2019-03-21T23:35:30.796Z,16.97
2019-03-21T23:38:00.109Z,17.87
2019-03-21T23:40:29.342Z,20.03
2019-03-21T23:42:58.898Z,19.83
2019-03-21T23:45:28.237Z,18.93
2019-03-21T23:47:57.746Z,18.53
2019-03-21T23:50:27.038Z,21.00
2019-03-21T23:52:56.676Z,17.60
2019-03-21T23:55:25.951Z,19.20
2019-03-21T23:57:55.391Z,19.07
